Time;durP1;ratioP1;P1;durP2;ratioP2;P2;SDS_P1;SDS_P2;PMS_P1;PMS_P2;Temp;Humidity;BMP_temperature;BMP_pressure;BME280_temperature;BME280_humidity;BME280_pressure;Samples;Min_cycle;Max_cycle;Signal;HPM_P1;HPM_P2
2023/01/11 00:02:40;;;;;;;4.10;3.20;;;;;;;0.59;96.65;100107.34;10461759;28;20045;-73
2023/01/11 00:07:42;;;;;;;5.40;3.83;;;;;;;0.90;96.61;100103.28;10443134;28;20037;-73
2023/01/11 00:12:44;;;;;;;8.20;4.60;;;;;;;1.05;96.35;100086.16;10441492;28;20124;-74
2023/01/11 00:17:45;;;;;;;8.10;5.70;;;;;;;1.15;95.07;100078.47;10459453;28;20095;-75
2023/01/11 00:22:47;;;;;;;8.38;5.50;;;;;;;1.37;95.19;100068.22;10459815;28;20083;-73
2023/01/11 00:27:49;;;;;;;7.55;6.05;;;;;;;1.58;94.25;100046.78;10442090;28;20067;-74
2023/01/11 00:32:58;;;;;;;10.93;5.50;;;;;;;1.62;93.84;100026.06;10459857;28;20534;-73
2023/01/11 00:37:59;;;;;;;10.27;6.13;;;;;;;1.75;93.54;100027.84;10463181;28;20045;-73
2023/01/11 00:48:21;;;;;;;7.82;5.55;;;;;;;1.87;93.09;100028.75;10462425;28;20055;-73
2023/01/11 00:53:23;;;;;;;9.55;5.38;;;;;;;1.74;94.09;100023.53;10462172;28;20438;-73
2023/01/11 00:58:25;;;;;;;8.85;5.20;;;;;;;1.92;93.09;100009.75;10441504;28;20056;-74
2023/01/11 01:03:27;;;;;;;12.60;5.43;;;;;;;2.05;92.11;100002.88;10459079;28;20052;-73
2023/01/11 01:08:28;;;;;;;6.40;5.43;;;;;;;2.11;91.35;99997.69;10441217;28;20053;-73
2023/01/11 01:18:52;;;;;;;7.57;5.00;;;;;;;2.00;90.99;99997.69;10440902;28;20051;-73
2023/01/11 01:23:54;;;;;;;9.40;6.10;;;;;;;2.00;91.52;99981.28;10458807;28;20045;-74
2023/01/11 01:28:56;;;;;;;7.55;4.70;;;;;;;2.14;91.68;99965.72;10458561;28;20510;-73
2023/01/11 01:33:58;;;;;;;12.32;5.50;;;;;;;2.17;91.21;99965.72;10461202;28;20413;-72
2023/01/11 01:39:00;;;;;;;11.18;5.00;;;;;;;2.05;92.37;99966.59;10459477;28;20057;-73
2023/01/11 01:44:05;;;;;;;10.45;4.93;;;;;;;2.07;93.21;99959.66;10459884;28;20132;-74
2023/01/11 01:49:15;;;;;;;7.95;4.53;;;;;;;2.00;92.40;99958.81;10444742;28;20507;-73
2023/01/11 01:54:26;;;;;;;6.93;4.90;;;;;;;1.92;93.88;99955.31;10429363;28;20116;-73
2023/01/11 01:59:30;;;;;;;7.25;4.32;;;;;;;2.11;92.80;99956.22;10460731;28;20422;-73
2023/01/11 02:04:39;;;;;;;5.50;3.38;;;;;;;2.20;91.91;99940.66;10463305;28;20063;-73
2023/01/11 02:09:55;;;;;;;7.55;3.97;;;;;;;2.00;92.41;99932.00;10443209;28;20090;-74
2023/01/11 02:15:02;;;;;;;12.85;4.03;;;;;;;2.25;91.40;99925.09;10454727;28;20502;-73
2023/01/11 02:20:20;;;;;;;7.88;4.38;;;;;;;2.03;92.61;99925.06;10459822;28;20040;-73
2023/01/11 02:25:57;;;;;;;6.78;4.10;;;;;;;2.10;92.89;99919.91;10462195;28;20045;-72
2023/01/11 02:31:18;;;;;;;8.93;3.65;;;;;;;2.23;91.96;99906.94;10410730;28;20061;-73
2023/01/11 02:36:34;;;;;;;9.10;4.20;;;;;;;2.22;91.79;99902.63;10460497;28;20133;-73
2023/01/11 02:47:22;;;;;;;8.05;5.00;;;;;;;2.46;90.92;99885.31;10460134;28;20041;-73
2023/01/11 02:52:48;;;;;;;7.57;4.63;;;;;;;2.31;92.03;99874.97;10441755;28;20071;-73
2023/01/11 02:57:53;;;;;;;8.15;5.00;;;;;;;2.39;91.63;99876.69;10442640;28;20140;-72
2023/01/11 03:03:17;;;;;;;10.73;4.75;;;;;;;2.29;91.42;99869.78;10459496;28;20040;-73
2023/01/11 03:08:25;;;;;;;8.98;4.55;;;;;;;2.41;91.36;99867.16;10459548;28;20110;-72
2023/01/11 03:13:36;;;;;;;9.35;5.20;;;;;;;2.34;91.75;99856.78;10401184;28;1163886;-72
2023/01/11 03:18:47;;;;;;;10.13;4.13;;;;;;;2.55;91.20;99846.38;10461144;28;20418;-74
2023/01/11 03:24:12;;;;;;;7.60;3.83;;;;;;;2.51;90.81;99832.53;10443828;28;20394;-74
2023/01/11 03:29:25;;;;;;;8.00;3.88;;;;;;;2.70;90.33;99815.22;10443418;28;20044;-73
2023/01/11 03:34:39;;;;;;;8.57;4.00;;;;;;;2.74;89.34;99809.13;10461474;28;20516;-74
2023/01/11 03:40:19;;;;;;;9.30;4.47;;;;;;;2.79;89.35;99809.13;10458803;28;20029;-72
2023/01/11 03:45:21;;;;;;;7.38;3.83;;;;;;;3.00;87.61;99800.34;10251330;29;20621;-72
2023/01/11 03:50:26;;;;;;;4.88;3.45;;;;;;;2.80;88.81;99791.81;10250855;28;20059;-73
2023/01/11 03:55:32;;;;;;;5.07;3.75;;;;;;;2.78;89.98;99787.47;10252689;29;20062;-74
2023/01/11 04:00:36;;;;;;;8.00;3.47;;;;;;;2.78;89.58;99781.41;10252672;28;20410;-74
2023/01/11 04:05:42;;;;;;;7.57;3.92;;;;;;;2.99;88.78;99783.06;10252556;29;20557;-73
2023/01/11 04:10:44;;;;;;;5.93;3.67;;;;;;;3.04;88.42;99784.75;10236862;28;20401;-73
2023/01/11 04:15:46;;;;;;;6.05;2.95;;;;;;;3.05;87.70;99767.44;10378612;28;20487;-71
2023/01/11 04:20:48;;;;;;;7.38;2.95;;;;;;;3.16;87.32;99760.47;10458431;28;20045;-71
2023/01/11 04:25:50;;;;;;;5.88;3.42;;;;;;;3.12;87.54;99757.88;10440420;28;20433;-71
2023/01/11 04:30:52;;;;;;;5.10;2.85;;;;;;;3.20;87.97;99769.97;10458462;28;20509;-71
2023/01/11 04:35:54;;;;;;;5.85;2.90;;;;;;;3.04;89.82;99770.91;10459338;28;20055;-70
2023/01/11 04:42:17;;;;;;;6.95;2.58;;;;;;;3.36;87.07;99752.53;10457811;28;20037;-72
2023/01/11 04:46:17;;;;;;;4.90;2.83;;;;;;;3.29;87.40;99746.53;10458038;28;20045;-71
2023/01/11 04:51:19;;;;;;;6.72;3.22;;;;;;;3.48;87.16;99742.03;10439519;28;20123;-71
2023/01/11 04:56:21;;;;;;;3.70;2.50;;;;;;;3.68;85.18;99728.03;10440003;28;20048;-70
2023/01/11 05:01:22;;;;;;;5.78;2.38;;;;;;;3.65;84.84;99713.31;10456977;28;20045;-71
2023/01/11 05:06:24;;;;;;;5.20;2.53;;;;;;;3.45;86.93;99716.09;10439429;28;20041;-72
2023/01/11 05:11:26;;;;;;;6.45;3.10;;;;;;;3.66;85.08;99727.19;10457531;28;20040;-71
2023/01/11 05:16:28;;;;;;;6.13;2.80;;;;;;;3.99;82.83;99733.81;10457359;28;20490;-70
2023/01/11 05:21:35;;;;;;;4.55;2.30;;;;;;;3.87;83.38;99724.38;10457946;28;20063;-71
2023/01/11 05:26:39;;;;;;;4.38;2.30;;;;;;;3.90;84.01;99718.31;10458246;28;20067;-71
2023/01/11 05:31:41;;;;;;;8.40;3.67;;;;;;;3.70;85.50;99715.88;10438680;28;20132;-72
2023/01/11 05:36:44;;;;;;;6.70;2.95;;;;;;;3.57;86.35;99707.31;10456917;28;20467;-72
2023/01/11 05:41:45;;;;;;;8.35;3.78;;;;;;;3.82;84.73;99710.56;10456309;28;20044;-70
2023/01/11 05:46:47;;;;;;;6.63;3.10;;;;;;;3.76;84.82;99697.63;10457156;28;20056;-71
2023/01/11 05:51:48;;;;;;;7.93;4.00;;;;;;;3.80;85.41;99697.56;10457323;28;20037;-72
2023/01/11 05:56:50;;;;;;;6.65;3.22;;;;;;;3.77;85.42;99696.75;10445967;28;20049;-72
2023/01/11 06:01:52;;;;;;;6.40;3.10;;;;;;;3.74;85.13;99694.19;10463673;28;20033;-70
2023/01/11 06:06:54;;;;;;;5.72;2.55;;;;;;;3.88;84.66;99687.09;10464725;28;20036;-71
2023/01/11 06:11:55;;;;;;;5.35;2.88;;;;;;;3.75;86.26;99683.75;10463155;28;20088;-70
2023/01/11 06:17:00;;;;;;;8.45;3.00;;;;;;;3.88;85.59;99691.44;10463747;28;20045;-72
2023/01/11 06:22:02;;;;;;;6.60;3.67;;;;;;;3.88;85.78;99689.69;10463346;28;20056;-71
2023/01/11 06:27:04;;;;;;;8.88;3.30;;;;;;;3.81;87.39;99685.47;10445702;28;20049;-71
2023/01/11 06:32:07;;;;;;;7.18;2.85;;;;;;;3.90;86.69;99684.50;10427839;28;20052;-72
2023/01/11 06:37:09;;;;;;;5.97;3.17;;;;;;;4.12;85.56;99679.91;10445270;28;20095;-73
2023/01/11 06:42:11;;;;;;;7.50;3.00;;;;;;;4.21;84.11;99683.28;10462967;28;20041;-72
2023/01/11 06:47:13;;;;;;;5.95;2.72;;;;;;;4.29;83.78;99685.78;10462424;28;20099;-72
2023/01/11 06:52:15;;;;;;;6.32;2.65;;;;;;;4.38;83.87;99672.66;10462011;28;20037;-72
2023/01/11 06:57:17;;;;;;;6.57;3.47;;;;;;;4.24;84.39;99659.81;10444366;28;20063;-71
2023/01/11 07:02:19;;;;;;;5.28;2.88;;;;;;;4.29;85.06;99677.97;10462740;28;20060;-71
2023/01/11 07:07:21;;;;;;;10.48;4.07;;;;;;;4.01;86.69;99673.09;10428427;28;20056;-71
2023/01/11 07:12:22;;;;;;;7.05;3.05;;;;;;;4.23;86.43;99686.72;10461730;28;20041;-71
2023/01/11 07:17:24;;;;;;;8.05;2.97;;;;;;;4.38;85.55;99690.88;10461502;28;20406;-72
2023/01/11 07:22:27;;;;;;;8.18;3.45;;;;;;;4.43;85.90;99689.09;10461528;28;20077;-71
2023/01/11 07:27:28;;;;;;;7.93;2.90;;;;;;;4.49;85.54;99678.59;10461656;28;20075;-72
2023/01/11 07:32:30;;;;;;;4.13;2.53;;;;;;;4.61;84.37;99674.13;10461982;28;20061;-72
2023/01/11 07:37:33;;;;;;;4.78;2.88;;;;;;;4.47;85.54;99671.69;10460824;28;20060;-72
2023/01/11 07:47:55;;;;;;;4.45;2.38;;;;;;;4.73;85.16;99666.97;10461099;28;20045;-72
2023/01/11 07:52:57;;;;;;;5.88;2.53;;;;;;;4.83;84.11;99659.06;10461785;28;20041;-71
2023/01/11 07:57:59;;;;;;;6.13;2.45;;;;;;;4.54;85.34;99668.13;10461094;28;20545;-70
2023/01/11 08:03:01;;;;;;;5.10;2.72;;;;;;;4.52;86.12;99670.75;10442649;28;20041;-72
2023/01/11 08:08:04;;;;;;;4.95;2.65;;;;;;;5.28;83.02;99665.31;10459776;28;20043;-70
2023/01/11 08:18:31;;;;;;;5.40;3.38;;;;;;;5.21;83.10;99674.09;10440221;28;20048;-70
2023/01/11 08:23:33;;;;;;;4.40;2.72;;;;;;;5.31;81.17;99679.16;10459416;28;20493;-71
2023/01/11 08:28:35;;;;;;;4.28;2.60;;;;;;;5.19;81.46;99668.94;10459718;28;20049;-72
2023/01/11 08:33:37;;;;;;;4.57;2.80;;;;;;;5.38;81.18;99664.25;10458576;28;20032;-70
2023/01/11 08:38:39;;;;;;;5.85;2.40;;;;;;;5.36;81.37;99660.84;10458792;28;20056;-72
2023/01/11 08:43:41;;;;;;;4.55;2.35;;;;;;;5.27;81.66;99666.22;10457710;28;20041;-71
2023/01/11 08:48:43;;;;;;;5.75;2.97;;;;;;;5.29;81.94;99659.22;10458047;28;20553;-70
2023/01/11 08:53:45;;;;;;;3.60;2.35;;;;;;;5.47;80.43;99656.28;10457968;28;20040;-71
2023/01/11 08:58:46;;;;;;;4.55;2.38;;;;;;;5.61;80.65;99648.22;10457647;28;20605;-72
2023/01/11 09:03:48;;;;;;;5.13;2.80;;;;;;;5.57;80.17;99643.94;10458098;28;20045;-72
2023/01/11 09:08:50;;;;;;;4.70;2.40;;;;;;;5.68;81.03;99646.38;10457860;28;20367;-71
2023/01/11 09:13:52;;;;;;;3.83;2.80;;;;;;;5.61;81.40;99643.00;10457261;28;20486;-71
2023/01/11 09:18:54;;;;;;;4.82;3.13;;;;;;;5.73;81.68;99641.94;10457522;28;20044;-70
2023/01/11 09:23:56;;;;;;;5.35;2.90;;;;;;;6.07;80.46;99643.06;10440378;28;20440;-70
2023/01/11 09:28:57;;;;;;;4.47;2.92;;;;;;;6.01;80.72;99635.34;10460903;28;20064;-71
2023/01/11 09:33:59;;;;;;;14.73;2.67;;;;;;;6.24;80.65;99629.69;10465826;28;20044;-72
2023/01/11 09:39:05;;;;;;;6.80;3.08;;;;;;;6.13;81.85;99631.63;10447859;28;20052;-72
2023/01/11 09:44:18;;;;;;;4.53;2.45;;;;;;;6.16;81.88;99620.28;10465424;28;20043;-71
2023/01/11 09:49:26;;;;;;;5.28;3.03;;;;;;;6.30;81.82;99621.72;10459379;28;20060;-71
2023/01/11 09:54:28;;;;;;;3.83;2.50;;;;;;;6.60;80.01;99616.72;10446174;28;20491;-72
2023/01/11 10:00:00;;;;;;;5.63;2.50;;;;;;;6.82;78.85;99607.50;10462845;28;20049;-72
2023/01/11 10:05:27;;;;;;;5.35;3.00;;;;;;;6.75;79.25;99590.25;10464778;28;20045;-71
2023/01/11 10:10:42;;;;;;;6.82;3.50;;;;;;;6.80;80.18;99588.38;10445164;28;20045;-72
2023/01/11 10:16:19;;;;;;;3.67;2.40;;;;;;;6.63;80.59;99587.06;10462258;28;20048;-75
2023/01/11 10:21:48;;;;;;;5.60;3.00;;;;;;;6.75;80.60;99579.78;10461158;28;20063;-74
2023/01/11 10:26:55;;;;;;;7.07;3.20;;;;;;;7.04;79.11;99576.50;10443784;28;20110;-74
2023/01/11 10:42:46;;;;;;;3.30;2.50;;;;;;;7.25;79.58;99553.31;10424805;28;20115;-75
2023/01/11 10:47:56;;;;;;;3.47;2.80;;;;;;;7.54;77.94;99553.41;10463762;28;20048;-72
2023/01/11 10:53:14;;;;;;;2.78;2.53;;;;;;;7.58;78.94;99543.72;10462731;28;20438;-74
2023/01/11 10:58:33;;;;;;;3.10;2.22;;;;;;;7.70;80.15;99540.78;10463548;28;20049;-74
2023/01/11 11:03:51;;;;;;;1.10;0.88;;;;;;;8.25;78.82;99539.16;10476757;28;20033;-73
2023/01/11 11:09:03;;;;;;;2.25;1.80;;;;;;;8.44;77.91;99551.72;10489722;28;20489;-74
2023/01/11 11:14:14;;;;;;;2.50;2.30;;;;;;;8.55;75.68;99541.78;10468612;28;20045;-74
2023/01/11 11:19:20;;;;;;;3.30;2.33;;;;;;;8.63;75.25;99533.66;10462690;28;20060;-75
2023/01/11 11:24:42;;;;;;;3.92;1.80;;;;;;;8.59;76.30;99528.53;10445681;28;20053;-75
2023/01/11 11:29:53;;;;;;;3.72;1.63;;;;;;;8.69;74.33;99528.25;10461118;28;20041;-75
2023/01/11 11:34:55;;;;;;;2.40;2.20;;;;;;;8.39;74.36;99527.44;10460857;28;20119;-75
2023/01/11 11:39:57;;;;;;;3.10;2.22;;;;;;;8.18;75.34;99521.91;10459758;28;20045;-74
2023/01/11 11:45:08;;;;;;;2.25;1.83;;;;;;;8.18;75.88;99513.19;10442779;28;20106;-74
2023/01/11 11:50:20;;;;;;;2.72;1.98;;;;;;;7.94;77.40;99512.19;10459573;28;20053;-74
2023/01/11 11:55:41;;;;;;;4.97;1.65;;;;;;;7.75;78.19;99498.78;10460054;28;20048;-72
2023/01/11 12:00:47;;;;;;;2.05;1.80;;;;;;;8.00;77.79;99497.13;10459602;28;20048;-74
2023/01/11 12:06:01;;;;;;;2.00;1.80;;;;;;;8.06;78.24;99490.88;10460077;28;20033;-73
2023/01/11 12:11:06;;;;;;;2.78;1.73;;;;;;;8.01;79.85;99480.56;10457966;28;20167;-74
2023/01/11 12:16:20;;;;;;;2.85;1.50;;;;;;;8.34;78.19;99477.78;10458726;28;20048;-74
2023/01/11 12:21:25;;;;;;;2.15;1.95;;;;;;;8.25;79.73;99467.59;10458836;28;20493;-73
2023/01/11 12:26:33;;;;;;;1.88;1.58;;;;;;;8.45;78.11;99457.38;10441136;28;20048;-74
2023/01/11 12:31:41;;;;;;;1.13;0.80;;;;;;;8.59;79.76;99457.81;10458787;28;20502;-74
2023/01/11 12:36:45;;;;;;;0.90;0.60;;;;;;;8.83;79.09;99450.03;10441475;28;20048;-74
2023/01/11 12:42:14;;;;;;;0.90;0.50;;;;;;;9.08;77.42;99437.78;10459053;28;20412;-74
2023/01/11 12:47:38;;;;;;;1.00;0.60;;;;;;;9.03;78.37;99442.34;10441522;28;20037;-73
2023/01/11 12:52:55;;;;;;;0.40;0.40;;;;;;;9.08;78.42;99436.94;10458486;28;20041;-73
2023/01/11 12:58:09;;;;;;;0.70;0.50;;;;;;;9.05;77.91;99427.41;10439784;28;20049;-74
2023/01/11 13:03:40;;;;;;;1.17;0.40;;;;;;;9.27;76.24;99426.63;10458130;28;20033;-73
2023/01/11 13:08:55;;;;;;;1.83;0.50;;;;;;;9.35;75.77;99424.59;10458017;28;20048;-73
2023/01/11 13:14:18;;;;;;;1.90;0.93;;;;;;;9.27;76.77;99419.63;10457070;28;20459;-74
2023/01/11 13:19:31;;;;;;;0.40;0.40;;;;;;;9.29;76.80;99424.81;10457319;28;20041;-73
2023/01/11 13:24:33;;;;;;;0.50;0.50;;;;;;;9.24;78.23;99427.59;10457603;28;20276;-74
2023/01/11 13:29:44;;;;;;;1.17;0.55;;;;;;;8.93;82.26;99433.06;10456540;28;20071;-74
2023/01/11 13:35:04;;;;;;;0.80;0.70;;;;;;;9.01;82.32;99436.28;10456281;28;20068;-75
2023/01/11 13:40:23;;;;;;;0.50;0.45;;;;;;;8.97;83.38;99441.69;10438630;28;20041;-75
2023/01/11 13:45:47;;;;;;;0.75;0.60;;;;;;;8.98;84.07;99444.25;10439192;28;20037;-74
2023/01/11 13:51:00;;;;;;;0.88;0.80;;;;;;;8.83;85.75;99442.16;10456546;28;20041;-75
2023/01/11 13:56:11;;;;;;;0.70;0.70;;;;;;;8.86;86.87;99439.44;10439261;28;20494;-74
2023/01/11 14:01:18;;;;;;;1.05;0.73;;;;;;;8.74;89.20;99443.31;10456897;28;20047;-75
2023/01/11 14:06:33;;;;;;;;;;;;;;;8.59;90.42;99447.31;10457241;28;20487;-74
2023/01/11 14:11:47;;;;;;;1.20;1.10;;;;;;;8.46;92.64;99451.25;10457766;28;19928;-74
2023/01/11 14:17:23;;;;;;;1.00;0.90;;;;;;;8.29;94.21;99459.59;10462133;28;20092;-75
2023/01/11 14:22:27;;;;;;;1.08;0.95;;;;;;;8.33;94.22;99456.00;10412311;28;20402;-74
2023/01/11 14:27:33;;;;;;;1.67;1.23;;;;;;;8.31;95.44;99459.53;10462802;28;20045;-74
2023/01/11 14:33:14;;;;;;;1.77;1.20;;;;;;;8.12;97.59;99455.81;10445454;28;20087;-74
2023/01/11 14:38:25;;;;;;;1.27;1.10;;;;;;;7.88;100.00;99453.03;10452338;28;20049;-74
2023/01/11 14:43:54;;;;;;;1.30;1.13;;;;;;;7.69;100.00;99450.09;10463152;28;20041;-73
2023/01/11 14:49:22;;;;;;;1.52;1.38;;;;;;;7.87;100.00;99451.31;10445668;28;20064;-74
2023/01/11 14:54:38;;;;;;;1.52;1.42;;;;;;;7.81;100.00;99447.13;10463646;28;20116;-74
2023/01/11 14:59:40;;;;;;;3.00;1.67;;;;;;;7.83;100.00;99461.03;10464361;28;20045;-74
2023/01/11 15:04:51;;;;;;;2.00;1.60;;;;;;;7.75;100.00;99459.53;10463550;28;20041;-74
2023/01/11 15:09:53;;;;;;;0.70;0.70;;;;;;;8.05;100.00;99460.34;10445139;28;20063;-73
2023/01/11 15:15:02;;;;;;;1.15;0.98;;;;;;;8.18;100.00;99460.84;10461563;28;20048;-73
2023/01/11 15:20:10;;;;;;;1.25;1.15;;;;;;;8.31;100.00;99470.03;10462081;28;20051;-74
2023/01/11 15:25:21;;;;;;;1.15;0.70;;;;;;;8.32;100.00;99474.34;10460576;28;20457;-73
2023/01/11 15:30:29;;;;;;;0.88;0.70;;;;;;;8.43;100.00;99487.16;10461834;28;20103;-73
2023/01/11 15:35:34;;;;;;;1.25;0.77;;;;;;;8.54;100.00;99482.41;10461744;28;20068;-74
2023/01/11 15:40:40;;;;;;;1.05;0.60;;;;;;;8.47;100.00;99488.78;10460900;28;20047;-74
2023/01/11 15:46:51;;;;;;;2.37;0.60;;;;;;;8.43;100.00;99493.25;10444549;28;20045;-74
2023/01/11 15:51:07;;;;;;;0.80;0.60;;;;;;;8.53;100.00;99492.03;10442106;28;20507;-73
2023/01/11 15:56:54;;;;;;;0.95;0.50;;;;;;;8.57;100.00;99496.28;10460053;28;20132;-74
2023/01/11 16:02:11;;;;;;;1.45;0.73;;;;;;;8.47;100.00;99494.88;10431859;28;20110;-74
2023/01/11 16:07:47;;;;;;;1.23;0.82;;;;;;;8.43;100.00;99495.88;10460391;28;20456;-74
2023/01/11 16:13:07;;;;;;;0.90;0.70;;;;;;;8.59;100.00;99497.09;10440751;28;20095;-74
2023/01/11 16:18:11;;;;;;;0.77;0.65;;;;;;;8.63;100.00;99497.84;10509547;23;20393;-72
2023/01/11 16:23:19;;;;;;;1.15;0.60;;;;;;;8.53;100.00;99505.13;10501061;28;20044;-72
2023/01/11 16:28:21;;;;;;;1.13;0.60;;;;;;;8.50;100.00;99507.88;10483195;28;20041;-72
2023/01/11 16:33:25;;;;;;;0.95;0.80;;;;;;;8.46;100.00;99510.63;10501472;28;20036;-72
2023/01/11 16:38:28;;;;;;;1.33;0.60;;;;;;;8.46;100.00;99515.88;10500920;28;20118;-71
2023/01/11 16:43:32;;;;;;;0.77;0.52;;;;;;;8.42;100.00;99520.34;10482965;28;20107;-72
2023/01/11 16:48:34;;;;;;;0.80;0.68;;;;;;;8.40;100.00;99526.53;10499780;28;20049;-71
2023/01/11 16:53:41;;;;;;;1.23;0.40;;;;;;;8.41;100.00;99534.34;10501591;28;20043;-71
2023/01/11 16:58:43;;;;;;;;;;;;;;;8.38;100.00;99538.81;10499761;28;20041;-71
2023/01/11 17:03:53;;;;;;;0.75;0.50;;;;;;;8.31;100.00;99545.97;10483730;28;19970;-72
2023/01/11 17:08:58;;;;;;;0.70;0.52;;;;;;;8.37;100.00;99550.19;10484247;28;20103;-72
2023/01/11 17:14:15;;;;;;;1.65;0.50;;;;;;;8.42;100.00;99550.94;10484904;28;20379;-70
2023/01/11 17:19:25;;;;;;;0.63;0.50;;;;;;;8.31;100.00;99574.75;10465331;28;20056;-71
2023/01/11 17:24:27;;;;;;;0.65;0.57;;;;;;;8.28;100.00;99572.25;10482011;28;20508;-70
2023/01/11 17:29:29;;;;;;;1.98;0.80;;;;;;;8.43;100.00;99584.06;10500865;28;20047;-71
2023/01/11 17:34:33;;;;;;;1.17;0.77;;;;;;;8.32;100.00;99586.94;10500151;28;20047;-71
2023/01/11 17:39:41;;;;;;;1.05;0.90;;;;;;;8.26;100.00;99593.22;10484793;28;20056;-71
2023/01/11 17:50:17;;;;;;;1.00;0.90;;;;;;;8.35;100.00;99599.97;10504188;28;20049;-70
2023/01/11 17:55:24;;;;;;;1.33;0.80;;;;;;;8.37;100.00;99611.31;10489287;28;20040;-70
2023/01/11 18:00:27;;;;;;;1.33;0.80;;;;;;;8.38;100.00;99617.38;10509292;28;20070;-70
2023/01/11 18:05:29;;;;;;;0.93;0.82;;;;;;;8.23;100.00;99622.13;10489778;28;20033;-71
2023/01/11 18:10:36;;;;;;;1.15;0.93;;;;;;;8.16;100.00;99628.44;10490252;28;20148;-70
2023/01/11 18:15:37;;;;;;;1.73;1.10;;;;;;;8.39;100.00;99627.81;10508064;28;20040;-70
2023/01/11 18:20:41;;;;;;;1.85;1.45;;;;;;;8.31;100.00;99632.38;10492212;28;20052;-71
2023/01/11 18:25:45;;;;;;;1.27;1.00;;;;;;;8.17;100.00;99626.69;10507860;28;20036;-71
2023/01/11 18:30:52;;;;;;;1.67;1.20;;;;;;;8.16;100.00;99638.91;10488045;28;20049;-71
2023/01/11 18:36:03;;;;;;;1.40;1.30;;;;;;;8.18;100.00;99647.56;10489798;28;20043;-70
2023/01/11 18:46:28;;;;;;;1.20;1.10;;;;;;;8.24;100.00;99643.94;10507512;28;20048;-71
2023/01/11 18:51:33;;;;;;;1.25;1.13;;;;;;;8.34;100.00;99654.09;10505374;28;20485;-70
2023/01/11 18:56:35;;;;;;;1.48;1.10;;;;;;;8.18;100.00;99654.56;10506645;28;20120;-70
2023/01/11 19:01:37;;;;;;;1.98;1.30;;;;;;;8.17;100.00;99656.34;10506780;28;20044;-70
2023/01/11 19:06:56;;;;;;;2.40;1.10;;;;;;;8.12;100.00;99658.22;10488749;28;20181;-70
2023/01/11 19:11:58;;;;;;;2.47;1.60;;;;;;;8.19;100.00;99677.22;10485064;28;20044;-71
2023/01/11 19:17:00;;;;;;;3.35;1.58;;;;;;;8.32;100.00;99673.38;10493755;28;20040;-69
2023/01/11 19:22:06;;;;;;;1.77;1.00;;;;;;;8.40;100.00;99686.28;10480051;28;20037;-70
2023/01/11 19:27:12;;;;;;;1.60;1.02;;;;;;;8.43;100.00;99699.31;10497291;28;20053;-70
2023/01/11 19:32:16;;;;;;;1.25;1.10;;;;;;;8.34;100.00;99708.25;10503576;28;20094;-70
2023/01/11 19:37:18;;;;;;;2.13;1.27;;;;;;;8.39;100.00;99703.75;10466716;28;20044;-71
2023/01/11 19:42:21;;;;;;;2.35;1.70;;;;;;;8.35;100.00;99717.81;10469737;28;20069;-70
2023/01/11 19:47:23;;;;;;;1.98;1.60;;;;;;;8.42;100.00;99723.78;10470314;28;20048;-70
2023/01/11 19:52:26;;;;;;;3.05;1.77;;;;;;;8.42;100.00;99729.88;10484115;28;20140;-71
2023/01/11 19:57:28;;;;;;;1.80;1.55;;;;;;;8.23;100.00;99733.84;10503892;28;20047;-71
2023/01/11 20:02:30;;;;;;;2.50;2.08;;;;;;;8.19;100.00;99738.34;10503504;28;20040;-71
2023/01/11 20:07:32;;;;;;;2.85;2.45;;;;;;;8.17;100.00;99747.97;10483043;28;20059;-71
2023/01/11 20:12:34;;;;;;;3.50;2.80;;;;;;;8.11;100.00;99752.53;10500969;28;20084;-71
2023/01/11 20:17:36;;;;;;;3.15;2.55;;;;;;;8.15;100.00;99759.41;10500296;28;20056;-73
2023/01/11 20:22:42;;;;;;;4.00;2.65;;;;;;;8.26;100.00;99776.53;10501910;28;20413;-71
2023/01/11 20:27:44;;;;;;;3.58;2.70;;;;;;;8.12;100.00;99780.41;10486175;28;20444;-71
2023/01/11 20:32:46;;;;;;;5.85;2.85;;;;;;;8.06;100.00;99771.81;10501379;28;20041;-72
2023/01/11 20:37:47;;;;;;;4.20;3.00;;;;;;;7.96;100.00;99772.09;10500269;28;20076;-71
2023/01/11 20:42:49;;;;;;;3.38;2.25;;;;;;;7.99;100.00;99785.09;10483299;28;20051;-72
2023/01/11 20:47:51;;;;;;;3.63;1.88;;;;;;;8.00;99.43;99778.97;10465837;28;20049;-71
2023/01/11 20:52:53;;;;;;;3.60;2.22;;;;;;;7.92;100.00;99797.47;10482159;28;20406;-72
2023/01/11 20:57:56;;;;;;;3.38;2.47;;;;;;;7.78;100.00;99789.09;10500460;28;20044;-71
2023/01/11 21:02:58;;;;;;;3.88;2.13;;;;;;;7.89;100.00;99788.84;10482552;28;20444;-71
2023/01/11 21:08:00;;;;;;;2.85;2.65;;;;;;;7.79;100.00;99782.97;10501006;28;20044;-73
2023/01/11 21:13:02;;;;;;;3.65;2.42;;;;;;;7.82;100.00;99791.59;10498462;28;20051;-71
2023/01/11 21:18:06;;;;;;;3.92;3.15;;;;;;;7.67;100.00;99801.59;10481872;28;20044;-71
2023/01/11 21:23:08;;;;;;;3.20;1.70;;;;;;;7.80;98.29;99805.63;10486267;28;20044;-70
2023/01/11 21:28:10;;;;;;;4.28;2.17;;;;;;;7.52;100.00;99808.88;10476389;28;20052;-70
2023/01/11 21:33:12;;;;;;;3.63;1.83;;;;;;;7.62;98.25;99800.84;10499359;28;20052;-72
2023/01/11 21:38:13;;;;;;;3.95;1.70;;;;;;;7.77;95.17;99803.09;10497808;28;20065;-70
2023/01/11 21:43:15;;;;;;;4.43;2.20;;;;;;;7.55;95.10;99821.91;10497699;28;20048;-71
2023/01/11 21:48:17;;;;;;;4.15;1.55;;;;;;;7.64;93.43;99827.81;10497963;28;20062;-71
2023/01/11 21:53:19;;;;;;;4.50;1.63;;;;;;;7.61;91.47;99830.50;10497308;28;20110;-70
2023/01/11 21:58:21;;;;;;;4.00;1.80;;;;;;;7.53;91.95;99836.78;10463207;28;20051;-71
2023/01/11 22:03:27;;;;;;;2.45;1.50;;;;;;;7.42;91.54;99857.06;10498346;28;20041;-71
2023/01/11 22:08:29;;;;;;;8.90;2.35;;;;;;;7.47;90.90;99842.13;10480114;28;20071;-70
2023/01/11 22:13:33;;;;;;;9.40;1.73;;;;;;;7.23;91.54;99845.28;10479915;28;20055;-71
2023/01/11 22:18:35;;;;;;;5.30;2.15;;;;;;;7.22;90.77;99851.41;10479504;22;20052;-73
2023/01/11 22:23:37;;;;;;;6.45;2.28;;;;;;;6.98;92.13;99851.00;10440141;28;20135;-74
2023/01/11 22:29:42;;;;;;;6.82;1.60;;;;;;;6.83;92.28;99849.56;10440327;28;20049;-74
2023/01/11 22:34:10;;;;;;;4.25;1.52;;;;;;;6.94;90.52;99861.56;10444826;28;20053;-75
2023/01/11 22:39:14;;;;;;;6.10;1.50;;;;;;;6.83;90.00;99865.25;10465294;28;20064;-74
2023/01/11 22:44:16;;;;;;;7.57;1.60;;;;;;;6.71;91.30;99865.47;10446723;28;20041;-74
2023/01/11 22:49:18;;;;;;;4.88;2.28;;;;;;;6.72;90.69;99859.34;10464661;28;20375;-74
2023/01/11 22:54:20;;;;;;;4.18;1.45;;;;;;;6.52;92.06;99858.88;10464643;28;20494;-73
2023/01/11 22:59:22;;;;;;;5.97;1.80;;;;;;;6.38;91.98;99850.44;10464582;28;20068;-74
2023/01/11 23:04:23;;;;;;;5.43;2.17;;;;;;;6.11;92.92;99849.13;10464327;28;20033;-75
2023/01/11 23:09:25;;;;;;;8.57;2.75;;;;;;;5.83;94.95;99852.16;10463376;28;20047;-75
2023/01/11 23:14:31;;;;;;;7.40;1.98;;;;;;;5.85;94.84;99855.63;10462428;28;20402;-74
2023/01/11 23:19:39;;;;;;;5.13;1.83;;;;;;;5.60;95.50;99849.03;10428072;28;20049;-75
2023/01/11 23:24:41;;;;;;;8.30;1.75;;;;;;;5.67;94.93;99848.94;10461873;28;20529;-74
2023/01/11 23:29:43;;;;;;;5.03;1.33;;;;;;;5.88;92.42;99847.72;10463440;28;20068;-74
2023/01/11 23:34:45;;;;;;;6.40;1.50;;;;;;;6.10;90.10;99863.06;10445124;28;20071;-75
2023/01/11 23:39:47;;;;;;;9.77;1.48;;;;;;;6.14;89.01;99867.34;10461450;28;20041;-74
2023/01/11 23:44:49;;;;;;;4.00;1.60;;;;;;;6.12;88.79;99853.47;10463051;28;20118;-74
2023/01/11 23:49:53;;;;;;;4.45;1.38;;;;;;;6.26;86.97;99852.34;10459754;28;20052;-75
2023/01/11 23:54:55;;;;;;;4.28;1.42;;;;;;;6.19;86.70;99847.25;10443503;28;20036;-74
2023/01/11 23:59:57;;;;;;;3.70;1.20;;;;;;;6.37;85.71;99843.47;10460754;28;20055;-74
